sensor_id;sensor_type;location;lat;lon;timestamp;P1;durP1;ratioP1;P2;durP2;ratioP2
19747;SDS011;10032;51.386;12.516;2023-01-29T00:01:23;4.60;;;3.47;;
19747;SDS011;10032;51.386;12.516;2023-01-29T00:03:51;5.93;;;3.60;;
19747;SDS011;10032;51.386;12.516;2023-01-29T00:06:17;5.47;;;3.70;;
19747;SDS011;10032;51.386;12.516;2023-01-29T00:08:42;5.07;;;3.67;;
19747;SDS011;10032;51.386;12.516;2023-01-29T00:11:09;5.37;;;4.00;;
19747;SDS011;10032;51.386;12.516;2023-01-29T00:13:34;6.73;;;3.43;;
19747;SDS011;10032;51.386;12.516;2023-01-29T00:16:00;4.27;;;3.87;;
19747;SDS011;10032;51.386;12.516;2023-01-29T00:18:26;5.37;;;4.10;;
19747;SDS011;10032;51.386;12.516;2023-01-29T00:20:53;8.03;;;4.67;;
19747;SDS011;10032;51.386;12.516;2023-01-29T00:23:21;6.80;;;4.40;;
19747;SDS011;10032;51.386;12.516;2023-01-29T00:25:47;10.80;;;4.20;;
19747;SDS011;10032;51.386;12.516;2023-01-29T00:28:13;5.47;;;4.03;;
19747;SDS011;10032;51.386;12.516;2023-01-29T00:30:39;6.30;;;3.70;;
19747;SDS011;10032;51.386;12.516;2023-01-29T00:33:14;5.87;;;4.47;;
19747;SDS011;10032;51.386;12.516;2023-01-29T00:35:45;5.40;;;4.17;;
19747;SDS011;10032;51.386;12.516;2023-01-29T00:38:11;5.70;;;4.53;;
19747;SDS011;10032;51.386;12.516;2023-01-29T00:40:37;4.87;;;3.53;;
19747;SDS011;10032;51.386;12.516;2023-01-29T00:43:21;5.07;;;3.87;;
19747;SDS011;10032;51.386;12.516;2023-01-29T00:46:05;4.37;;;3.90;;
19747;SDS011;10032;51.386;12.516;2023-01-29T00:48:31;4.50;;;3.90;;
19747;SDS011;10032;51.386;12.516;2023-01-29T00:50:57;6.07;;;4.10;;
19747;SDS011;10032;51.386;12.516;2023-01-29T00:53:22;4.73;;;3.70;;
19747;SDS011;10032;51.386;12.516;2023-01-29T00:55:48;6.53;;;3.60;;
19747;SDS011;10032;51.386;12.516;2023-01-29T00:58:13;4.87;;;3.60;;
19747;SDS011;10032;51.386;12.516;2023-01-29T01:00:41;5.10;;;3.73;;
19747;SDS011;10032;51.386;12.516;2023-01-29T01:03:08;6.37;;;3.87;;
19747;SDS011;10032;51.386;12.516;2023-01-29T01:05:45;4.83;;;3.60;;
19747;SDS011;10032;51.386;12.516;2023-01-29T01:08:11;5.63;;;3.97;;
19747;SDS011;10032;51.386;12.516;2023-01-29T01:10:58;4.57;;;3.83;;
19747;SDS011;10032;51.386;12.516;2023-01-29T01:13:28;6.63;;;5.10;;
19747;SDS011;10032;51.386;12.516;2023-01-29T01:15:56;4.90;;;4.03;;
19747;SDS011;10032;51.386;12.516;2023-01-29T01:18:21;4.40;;;3.97;;
19747;SDS011;10032;51.386;12.516;2023-01-29T01:20:47;5.93;;;4.63;;
19747;SDS011;10032;51.386;12.516;2023-01-29T01:23:17;5.23;;;4.07;;
19747;SDS011;10032;51.386;12.516;2023-01-29T01:25:43;5.57;;;4.50;;
19747;SDS011;10032;51.386;12.516;2023-01-29T01:28:08;6.73;;;4.30;;
19747;SDS011;10032;51.386;12.516;2023-01-29T01:30:34;5.33;;;4.00;;
19747;SDS011;10032;51.386;12.516;2023-01-29T01:33:00;5.83;;;3.87;;
19747;SDS011;10032;51.386;12.516;2023-01-29T01:35:26;4.77;;;3.60;;
19747;SDS011;10032;51.386;12.516;2023-01-29T01:37:51;6.43;;;4.13;;
19747;SDS011;10032;51.386;12.516;2023-01-29T01:40:18;5.47;;;4.13;;
19747;SDS011;10032;51.386;12.516;2023-01-29T01:42:49;14.23;;;4.27;;
19747;SDS011;10032;51.386;12.516;2023-01-29T01:45:18;7.37;;;4.33;;
19747;SDS011;10032;51.386;12.516;2023-01-29T01:47:46;7.93;;;4.27;;
19747;SDS011;10032;51.386;12.516;2023-01-29T01:50:17;7.73;;;4.53;;
19747;SDS011;10032;51.386;12.516;2023-01-29T01:53:04;6.73;;;4.83;;
19747;SDS011;10032;51.386;12.516;2023-01-29T01:55:33;6.73;;;4.80;;
19747;SDS011;10032;51.386;12.516;2023-01-29T01:58:03;8.73;;;5.20;;
19747;SDS011;10032;51.386;12.516;2023-01-29T02:00:34;7.93;;;4.63;;
19747;SDS011;10032;51.386;12.516;2023-01-29T02:03:00;11.57;;;4.83;;
19747;SDS011;10032;51.386;12.516;2023-01-29T02:05:46;6.73;;;4.77;;
19747;SDS011;10032;51.386;12.516;2023-01-29T02:11:38;9.63;;;4.70;;
19747;SDS011;10032;51.386;12.516;2023-01-29T02:14:03;9.73;;;5.20;;
19747;SDS011;10032;51.386;12.516;2023-01-29T02:16:29;7.17;;;5.07;;
19747;SDS011;10032;51.386;12.516;2023-01-29T02:18:55;7.50;;;4.67;;
19747;SDS011;10032;51.386;12.516;2023-01-29T02:27:04;6.10;;;4.57;;
19747;SDS011;10032;51.386;12.516;2023-01-29T02:32:14;6.23;;;4.50;;
19747;SDS011;10032;51.386;12.516;2023-01-29T02:43:08;8.97;;;5.43;;
19747;SDS011;10032;51.386;12.516;2023-01-29T02:45:45;9.37;;;4.97;;
19747;SDS011;10032;51.386;12.516;2023-01-29T02:48:21;8.03;;;5.33;;
19747;SDS011;10032;51.386;12.516;2023-01-29T02:50:52;8.97;;;5.83;;
19747;SDS011;10032;51.386;12.516;2023-01-29T02:53:25;9.87;;;6.00;;
19747;SDS011;10032;51.386;12.516;2023-01-29T02:55:57;9.50;;;6.13;;
19747;SDS011;10032;51.386;12.516;2023-01-29T03:00:53;11.40;;;6.70;;
19747;SDS011;10032;51.386;12.516;2023-01-29T03:03:35;7.53;;;5.27;;
19747;SDS011;10032;51.386;12.516;2023-01-29T03:08:43;8.97;;;5.63;;
19747;SDS011;10032;51.386;12.516;2023-01-29T03:11:15;9.77;;;6.17;;
19747;SDS011;10032;51.386;12.516;2023-01-29T03:16:12;8.80;;;6.50;;
19747;SDS011;10032;51.386;12.516;2023-01-29T03:18:46;10.97;;;6.03;;
19747;SDS011;10032;51.386;12.516;2023-01-29T03:21:18;10.43;;;6.90;;
19747;SDS011;10032;51.386;12.516;2023-01-29T03:24:07;10.93;;;5.97;;
19747;SDS011;10032;51.386;12.516;2023-01-29T03:26:52;11.00;;;6.90;;
19747;SDS011;10032;51.386;12.516;2023-01-29T03:29:37;11.63;;;7.20;;
19747;SDS011;10032;51.386;12.516;2023-01-29T03:32:23;7.30;;;5.60;;
19747;SDS011;10032;51.386;12.516;2023-01-29T03:34:53;11.20;;;6.70;;
19747;SDS011;10032;51.386;12.516;2023-01-29T03:37:36;11.53;;;6.87;;
19747;SDS011;10032;51.386;12.516;2023-01-29T03:40:03;14.40;;;6.90;;
19747;SDS011;10032;51.386;12.516;2023-01-29T03:45:16;11.27;;;6.87;;
19747;SDS011;10032;51.386;12.516;2023-01-29T03:48:10;12.17;;;7.73;;
19747;SDS011;10032;51.386;12.516;2023-01-29T03:56:12;11.30;;;6.87;;
19747;SDS011;10032;51.386;12.516;2023-01-29T04:04:09;8.37;;;5.53;;
19747;SDS011;10032;51.386;12.516;2023-01-29T04:06:40;10.83;;;7.30;;
19747;SDS011;10032;51.386;12.516;2023-01-29T04:11:36;9.00;;;6.37;;
19747;SDS011;10032;51.386;12.516;2023-01-29T04:14:06;12.20;;;6.87;;
19747;SDS011;10032;51.386;12.516;2023-01-29T04:16:37;11.43;;;6.43;;
19747;SDS011;10032;51.386;12.516;2023-01-29T04:19:07;10.77;;;6.90;;
19747;SDS011;10032;51.386;12.516;2023-01-29T04:21:33;11.53;;;7.87;;
19747;SDS011;10032;51.386;12.516;2023-01-29T04:24:01;12.30;;;7.07;;
19747;SDS011;10032;51.386;12.516;2023-01-29T04:29:49;9.93;;;6.33;;
19747;SDS011;10032;51.386;12.516;2023-01-29T04:32:15;12.10;;;7.13;;
19747;SDS011;10032;51.386;12.516;2023-01-29T04:37:45;12.17;;;6.90;;
19747;SDS011;10032;51.386;12.516;2023-01-29T04:40:22;9.87;;;7.00;;
19747;SDS011;10032;51.386;12.516;2023-01-29T04:48:23;9.30;;;6.23;;
19747;SDS011;10032;51.386;12.516;2023-01-29T04:53:27;11.67;;;7.53;;
19747;SDS011;10032;51.386;12.516;2023-01-29T04:58:36;12.63;;;7.23;;
19747;SDS011;10032;51.386;12.516;2023-01-29T05:01:08;11.70;;;6.93;;
19747;SDS011;10032;51.386;12.516;2023-01-29T05:03:37;11.47;;;7.53;;
19747;SDS011;10032;51.386;12.516;2023-01-29T05:06:06;14.27;;;8.10;;
19747;SDS011;10032;51.386;12.516;2023-01-29T05:08:33;11.03;;;6.77;;
19747;SDS011;10032;51.386;12.516;2023-01-29T05:11:02;13.00;;;7.47;;
19747;SDS011;10032;51.386;12.516;2023-01-29T05:13:29;12.10;;;7.90;;
19747;SDS011;10032;51.386;12.516;2023-01-29T05:18:49;11.23;;;6.80;;
19747;SDS011;10032;51.386;12.516;2023-01-29T05:21:15;11.70;;;7.03;;
19747;SDS011;10032;51.386;12.516;2023-01-29T05:23:41;12.43;;;8.17;;
19747;SDS011;10032;51.386;12.516;2023-01-29T05:26:17;10.43;;;7.03;;
19747;SDS011;10032;51.386;12.516;2023-01-29T05:29:04;10.80;;;6.90;;
19747;SDS011;10032;51.386;12.516;2023-01-29T05:31:30;10.03;;;7.50;;
19747;SDS011;10032;51.386;12.516;2023-01-29T05:33:55;11.60;;;7.77;;
19747;SDS011;10032;51.386;12.516;2023-01-29T05:36:20;11.07;;;6.77;;
19747;SDS011;10032;51.386;12.516;2023-01-29T05:38:46;12.00;;;7.20;;
19747;SDS011;10032;51.386;12.516;2023-01-29T05:41:11;12.40;;;8.00;;
19747;SDS011;10032;51.386;12.516;2023-01-29T05:43:36;14.13;;;8.37;;
19747;SDS011;10032;51.386;12.516;2023-01-29T05:46:02;11.90;;;7.40;;
19747;SDS011;10032;51.386;12.516;2023-01-29T05:48:28;11.67;;;6.57;;
19747;SDS011;10032;51.386;12.516;2023-01-29T05:51:01;11.60;;;6.87;;
19747;SDS011;10032;51.386;12.516;2023-01-29T05:53:28;16.73;;;7.97;;
19747;SDS011;10032;51.386;12.516;2023-01-29T05:55:54;12.87;;;7.13;;
19747;SDS011;10032;51.386;12.516;2023-01-29T05:58:23;10.97;;;6.67;;
19747;SDS011;10032;51.386;12.516;2023-01-29T06:00:48;11.07;;;7.07;;
19747;SDS011;10032;51.386;12.516;2023-01-29T06:03:14;10.77;;;6.97;;
19747;SDS011;10032;51.386;12.516;2023-01-29T06:05:39;11.07;;;6.97;;
19747;SDS011;10032;51.386;12.516;2023-01-29T06:08:05;12.83;;;6.83;;
19747;SDS011;10032;51.386;12.516;2023-01-29T06:10:31;10.50;;;6.83;;
19747;SDS011;10032;51.386;12.516;2023-01-29T06:12:57;11.10;;;6.47;;
19747;SDS011;10032;51.386;12.516;2023-01-29T06:15:22;10.50;;;7.23;;
19747;SDS011;10032;51.386;12.516;2023-01-29T06:17:51;13.40;;;7.73;;
19747;SDS011;10032;51.386;12.516;2023-01-29T06:20:17;10.20;;;7.07;;
19747;SDS011;10032;51.386;12.516;2023-01-29T06:22:43;10.37;;;7.20;;
19747;SDS011;10032;51.386;12.516;2023-01-29T06:25:08;10.17;;;6.60;;
19747;SDS011;10032;51.386;12.516;2023-01-29T06:27:34;12.53;;;6.57;;
19747;SDS011;10032;51.386;12.516;2023-01-29T06:29:59;13.37;;;6.73;;
19747;SDS011;10032;51.386;12.516;2023-01-29T06:32:25;11.10;;;6.93;;
19747;SDS011;10032;51.386;12.516;2023-01-29T06:34:51;11.77;;;6.47;;
19747;SDS011;10032;51.386;12.516;2023-01-29T06:37:17;11.13;;;7.03;;
19747;SDS011;10032;51.386;12.516;2023-01-29T06:39:42;11.57;;;6.83;;
19747;SDS011;10032;51.386;12.516;2023-01-29T06:42:08;12.17;;;7.33;;
19747;SDS011;10032;51.386;12.516;2023-01-29T06:44:35;10.47;;;6.50;;
19747;SDS011;10032;51.386;12.516;2023-01-29T06:47:00;12.00;;;7.30;;
19747;SDS011;10032;51.386;12.516;2023-01-29T06:49:25;10.60;;;6.87;;
19747;SDS011;10032;51.386;12.516;2023-01-29T06:51:51;10.87;;;7.03;;
19747;SDS011;10032;51.386;12.516;2023-01-29T06:54:16;11.37;;;6.97;;
19747;SDS011;10032;51.386;12.516;2023-01-29T06:56:42;14.57;;;7.60;;
19747;SDS011;10032;51.386;12.516;2023-01-29T06:59:07;10.87;;;6.63;;
19747;SDS011;10032;51.386;12.516;2023-01-29T07:01:32;10.70;;;6.80;;
19747;SDS011;10032;51.386;12.516;2023-01-29T07:03:58;10.87;;;6.87;;
19747;SDS011;10032;51.386;12.516;2023-01-29T07:06:27;13.20;;;7.17;;
19747;SDS011;10032;51.386;12.516;2023-01-29T07:08:53;10.57;;;7.10;;
19747;SDS011;10032;51.386;12.516;2023-01-29T07:11:18;14.13;;;7.67;;
19747;SDS011;10032;51.386;12.516;2023-01-29T07:13:44;11.87;;;7.00;;
19747;SDS011;10032;51.386;12.516;2023-01-29T07:16:09;11.37;;;7.37;;
19747;SDS011;10032;51.386;12.516;2023-01-29T07:18:35;14.90;;;8.27;;
19747;SDS011;10032;51.386;12.516;2023-01-29T07:21:04;11.53;;;7.80;;
19747;SDS011;10032;51.386;12.516;2023-01-29T07:23:31;11.50;;;7.10;;
19747;SDS011;10032;51.386;12.516;2023-01-29T07:26:01;11.63;;;6.43;;
19747;SDS011;10032;51.386;12.516;2023-01-29T07:28:28;11.90;;;7.60;;
19747;SDS011;10032;51.386;12.516;2023-01-29T07:30:57;11.00;;;7.10;;
19747;SDS011;10032;51.386;12.516;2023-01-29T07:33:23;15.53;;;7.03;;
19747;SDS011;10032;51.386;12.516;2023-01-29T07:35:49;12.27;;;6.93;;
19747;SDS011;10032;51.386;12.516;2023-01-29T07:38:14;12.30;;;7.73;;
19747;SDS011;10032;51.386;12.516;2023-01-29T07:40:40;11.67;;;6.33;;
19747;SDS011;10032;51.386;12.516;2023-01-29T07:43:05;11.73;;;6.87;;
19747;SDS011;10032;51.386;12.516;2023-01-29T07:45:35;12.20;;;8.17;;
19747;SDS011;10032;51.386;12.516;2023-01-29T07:48:02;12.23;;;7.73;;
19747;SDS011;10032;51.386;12.516;2023-01-29T07:50:29;11.37;;;7.53;;
19747;SDS011;10032;51.386;12.516;2023-01-29T07:52:56;16.03;;;9.00;;
19747;SDS011;10032;51.386;12.516;2023-01-29T07:55:22;13.70;;;8.40;;
19747;SDS011;10032;51.386;12.516;2023-01-29T07:57:54;12.13;;;7.77;;
19747;SDS011;10032;51.386;12.516;2023-01-29T08:00:23;12.63;;;7.83;;
19747;SDS011;10032;51.386;12.516;2023-01-29T08:02:49;12.87;;;8.53;;
19747;SDS011;10032;51.386;12.516;2023-01-29T08:05:15;12.43;;;7.33;;
19747;SDS011;10032;51.386;12.516;2023-01-29T08:07:40;12.77;;;7.97;;
19747;SDS011;10032;51.386;12.516;2023-01-29T08:10:06;11.90;;;7.87;;
19747;SDS011;10032;51.386;12.516;2023-01-29T08:12:31;13.07;;;8.33;;
19747;SDS011;10032;51.386;12.516;2023-01-29T08:14:57;11.00;;;7.10;;
19747;SDS011;10032;51.386;12.516;2023-01-29T08:17:22;12.07;;;7.93;;
19747;SDS011;10032;51.386;12.516;2023-01-29T08:19:47;14.10;;;7.97;;
19747;SDS011;10032;51.386;12.516;2023-01-29T08:22:13;12.07;;;7.77;;
19747;SDS011;10032;51.386;12.516;2023-01-29T08:24:40;16.50;;;9.07;;
19747;SDS011;10032;51.386;12.516;2023-01-29T08:27:06;15.07;;;8.90;;
19747;SDS011;10032;51.386;12.516;2023-01-29T08:29:31;12.57;;;8.53;;
19747;SDS011;10032;51.386;12.516;2023-01-29T08:31:56;12.67;;;8.03;;
19747;SDS011;10032;51.386;12.516;2023-01-29T08:34:22;17.33;;;8.40;;
19747;SDS011;10032;51.386;12.516;2023-01-29T08:36:47;14.53;;;8.63;;
19747;SDS011;10032;51.386;12.516;2023-01-29T08:39:13;12.77;;;8.50;;
19747;SDS011;10032;51.386;12.516;2023-01-29T08:41:38;14.27;;;8.17;;
19747;SDS011;10032;51.386;12.516;2023-01-29T08:44:04;14.17;;;8.70;;
19747;SDS011;10032;51.386;12.516;2023-01-29T08:46:30;14.63;;;9.13;;
19747;SDS011;10032;51.386;12.516;2023-01-29T08:48:55;13.10;;;7.83;;
19747;SDS011;10032;51.386;12.516;2023-01-29T08:51:22;10.33;;;7.67;;
19747;SDS011;10032;51.386;12.516;2023-01-29T08:53:49;13.37;;;8.33;;
19747;SDS011;10032;51.386;12.516;2023-01-29T08:56:14;14.13;;;8.67;;
19747;SDS011;10032;51.386;12.516;2023-01-29T08:58:40;13.80;;;8.10;;
19747;SDS011;10032;51.386;12.516;2023-01-29T09:01:06;16.20;;;8.07;;
19747;SDS011;10032;51.386;12.516;2023-01-29T09:03:33;19.67;;;8.93;;
19747;SDS011;10032;51.386;12.516;2023-01-29T09:05:58;15.97;;;9.07;;
19747;SDS011;10032;51.386;12.516;2023-01-29T09:08:23;16.27;;;9.07;;
19747;SDS011;10032;51.386;12.516;2023-01-29T09:10:49;15.57;;;8.73;;
19747;SDS011;10032;51.386;12.516;2023-01-29T09:13:14;15.63;;;9.20;;
19747;SDS011;10032;51.386;12.516;2023-01-29T09:15:39;13.10;;;7.40;;
19747;SDS011;10032;51.386;12.516;2023-01-29T09:18:05;14.77;;;9.20;;
19747;SDS011;10032;51.386;12.516;2023-01-29T09:20:31;14.33;;;8.63;;
19747;SDS011;10032;51.386;12.516;2023-01-29T09:22:56;12.00;;;7.37;;
19747;SDS011;10032;51.386;12.516;2023-01-29T09:25:23;14.93;;;9.47;;
19747;SDS011;10032;51.386;12.516;2023-01-29T09:27:49;14.50;;;8.30;;
19747;SDS011;10032;51.386;12.516;2023-01-29T09:30:14;14.93;;;8.70;;
19747;SDS011;10032;51.386;12.516;2023-01-29T09:32:40;12.33;;;8.10;;
19747;SDS011;10032;51.386;12.516;2023-01-29T09:35:06;11.60;;;7.40;;
19747;SDS011;10032;51.386;12.516;2023-01-29T09:37:33;14.30;;;8.97;;
19747;SDS011;10032;51.386;12.516;2023-01-29T09:39:58;12.83;;;7.93;;
19747;SDS011;10032;51.386;12.516;2023-01-29T09:42:25;13.07;;;8.07;;
19747;SDS011;10032;51.386;12.516;2023-01-29T09:47:44;16.43;;;7.90;;
19747;SDS011;10032;51.386;12.516;2023-01-29T09:52:39;13.73;;;8.13;;
19747;SDS011;10032;51.386;12.516;2023-01-29T09:55:11;12.17;;;6.90;;
19747;SDS011;10032;51.386;12.516;2023-01-29T10:00:15;14.57;;;8.67;;
19747;SDS011;10032;51.386;12.516;2023-01-29T10:02:51;13.00;;;7.83;;
19747;SDS011;10032;51.386;12.516;2023-01-29T10:10:53;13.00;;;7.97;;
19747;SDS011;10032;51.386;12.516;2023-01-29T10:13:32;15.63;;;8.57;;
19747;SDS011;10032;51.386;12.516;2023-01-29T10:26:56;13.57;;;8.03;;
19747;SDS011;10032;51.386;12.516;2023-01-29T10:29:24;12.07;;;7.27;;
19747;SDS011;10032;51.386;12.516;2023-01-29T10:31:53;13.37;;;7.60;;
19747;SDS011;10032;51.386;12.516;2023-01-29T10:34:26;15.00;;;8.77;;
19747;SDS011;10032;51.386;12.516;2023-01-29T10:36:57;16.57;;;10.47;;
19747;SDS011;10032;51.386;12.516;2023-01-29T10:39:24;12.93;;;9.17;;
19747;SDS011;10032;51.386;12.516;2023-01-29T10:44:50;13.37;;;8.10;;
19747;SDS011;10032;51.386;12.516;2023-01-29T10:50:51;17.17;;;8.47;;
19747;SDS011;10032;51.386;12.516;2023-01-29T10:53:46;14.67;;;8.80;;
19747;SDS011;10032;51.386;12.516;2023-01-29T10:59:05;15.50;;;8.87;;
19747;SDS011;10032;51.386;12.516;2023-01-29T11:01:57;14.30;;;9.10;;
19747;SDS011;10032;51.386;12.516;2023-01-29T11:04:23;13.00;;;8.13;;
19747;SDS011;10032;51.386;12.516;2023-01-29T11:06:51;11.33;;;7.60;;
19747;SDS011;10032;51.386;12.516;2023-01-29T11:12:09;15.70;;;7.73;;
19747;SDS011;10032;51.386;12.516;2023-01-29T11:14:57;13.10;;;7.23;;
19747;SDS011;10032;51.386;12.516;2023-01-29T11:17:25;11.80;;;6.83;;
19747;SDS011;10032;51.386;12.516;2023-01-29T11:19:51;15.50;;;8.57;;
19747;SDS011;10032;51.386;12.516;2023-01-29T11:22:23;10.97;;;8.10;;
19747;SDS011;10032;51.386;12.516;2023-01-29T11:25:35;12.47;;;7.93;;
19747;SDS011;10032;51.386;12.516;2023-01-29T11:27:45;16.87;;;9.50;;
19747;SDS011;10032;51.386;12.516;2023-01-29T11:30:14;13.23;;;8.70;;
19747;SDS011;10032;51.386;12.516;2023-01-29T11:32:40;13.80;;;8.03;;
19747;SDS011;10032;51.386;12.516;2023-01-29T11:37:41;14.73;;;8.10;;
19747;SDS011;10032;51.386;12.516;2023-01-29T11:42:42;14.07;;;8.53;;
19747;SDS011;10032;51.386;12.516;2023-01-29T11:47:49;14.63;;;7.70;;
19747;SDS011;10032;51.386;12.516;2023-01-29T11:50:28;16.50;;;8.50;;
19747;SDS011;10032;51.386;12.516;2023-01-29T11:52:57;14.93;;;8.37;;
19747;SDS011;10032;51.386;12.516;2023-01-29T11:55:30;14.20;;;8.27;;
19747;SDS011;10032;51.386;12.516;2023-01-29T11:58:05;11.73;;;7.67;;
19747;SDS011;10032;51.386;12.516;2023-01-29T12:00:45;14.30;;;8.40;;
19747;SDS011;10032;51.386;12.516;2023-01-29T12:03:20;13.43;;;7.37;;
19747;SDS011;10032;51.386;12.516;2023-01-29T12:06:03;13.97;;;8.13;;
19747;SDS011;10032;51.386;12.516;2023-01-29T12:08:38;13.17;;;7.43;;
19747;SDS011;10032;51.386;12.516;2023-01-29T12:11:14;11.70;;;8.03;;
19747;SDS011;10032;51.386;12.516;2023-01-29T12:13:52;13.70;;;7.90;;
19747;SDS011;10032;51.386;12.516;2023-01-29T12:16:24;14.30;;;8.70;;
19747;SDS011;10032;51.386;12.516;2023-01-29T12:19:13;11.90;;;7.07;;
19747;SDS011;10032;51.386;12.516;2023-01-29T12:21:49;13.90;;;8.47;;
19747;SDS011;10032;51.386;12.516;2023-01-29T12:27:39;12.37;;;8.03;;
19747;SDS011;10032;51.386;12.516;2023-01-29T12:30:12;13.67;;;7.47;;
19747;SDS011;10032;51.386;12.516;2023-01-29T12:40:37;13.03;;;8.27;;
19747;SDS011;10032;51.386;12.516;2023-01-29T12:43:16;11.90;;;7.73;;
19747;SDS011;10032;51.386;12.516;2023-01-29T12:45:49;12.23;;;7.67;;
19747;SDS011;10032;51.386;12.516;2023-01-29T12:48:19;14.77;;;7.60;;
19747;SDS011;10032;51.386;12.516;2023-01-29T12:50:49;11.17;;;6.33;;
19747;SDS011;10032;51.386;12.516;2023-01-29T12:53:25;10.60;;;6.20;;
19747;SDS011;10032;51.386;12.516;2023-01-29T12:56:21;13.13;;;6.87;;
19747;SDS011;10032;51.386;12.516;2023-01-29T12:58:52;10.13;;;6.47;;
19747;SDS011;10032;51.386;12.516;2023-01-29T13:01:33;12.73;;;7.07;;
19747;SDS011;10032;51.386;12.516;2023-01-29T13:04:27;9.90;;;6.83;;
19747;SDS011;10032;51.386;12.516;2023-01-29T13:07:18;11.47;;;7.37;;
19747;SDS011;10032;51.386;12.516;2023-01-29T13:09:51;16.07;;;8.43;;
19747;SDS011;10032;51.386;12.516;2023-01-29T13:12:20;13.40;;;7.93;;
19747;SDS011;10032;51.386;12.516;2023-01-29T13:14:53;13.90;;;7.43;;
19747;SDS011;10032;51.386;12.516;2023-01-29T13:17:35;13.73;;;7.20;;
19747;SDS011;10032;51.386;12.516;2023-01-29T13:20:25;10.47;;;6.60;;
19747;SDS011;10032;51.386;12.516;2023-01-29T13:22:54;11.27;;;7.10;;
19747;SDS011;10032;51.386;12.516;2023-01-29T13:25:25;11.47;;;6.83;;
19747;SDS011;10032;51.386;12.516;2023-01-29T13:27:50;14.27;;;8.30;;
19747;SDS011;10032;51.386;12.516;2023-01-29T13:30:34;12.73;;;7.90;;
19747;SDS011;10032;51.386;12.516;2023-01-29T13:33:02;11.97;;;6.47;;
19747;SDS011;10032;51.386;12.516;2023-01-29T13:35:39;13.73;;;8.90;;
19747;SDS011;10032;51.386;12.516;2023-01-29T13:38:19;21.67;;;12.43;;
19747;SDS011;10032;51.386;12.516;2023-01-29T13:40:49;16.17;;;9.77;;
19747;SDS011;10032;51.386;12.516;2023-01-29T13:43:19;17.63;;;10.93;;
19747;SDS011;10032;51.386;12.516;2023-01-29T13:45:47;25.20;;;13.27;;
19747;SDS011;10032;51.386;12.516;2023-01-29T13:50:43;10.17;;;7.57;;
19747;SDS011;10032;51.386;12.516;2023-01-29T13:53:17;18.00;;;9.40;;
19747;SDS011;10032;51.386;12.516;2023-01-29T13:55:46;19.00;;;10.73;;
19747;SDS011;10032;51.386;12.516;2023-01-29T13:58:16;19.13;;;9.73;;
19747;SDS011;10032;51.386;12.516;2023-01-29T14:01:01;12.83;;;8.50;;
19747;SDS011;10032;51.386;12.516;2023-01-29T14:13:39;13.83;;;9.03;;
19747;SDS011;10032;51.386;12.516;2023-01-29T14:18:48;11.00;;;7.57;;
19747;SDS011;10032;51.386;12.516;2023-01-29T14:21:28;17.83;;;8.60;;
19747;SDS011;10032;51.386;12.516;2023-01-29T14:24:08;14.33;;;9.40;;
19747;SDS011;10032;51.386;12.516;2023-01-29T14:26:41;17.03;;;9.17;;
19747;SDS011;10032;51.386;12.516;2023-01-29T14:31:48;11.53;;;7.43;;
19747;SDS011;10032;51.386;12.516;2023-01-29T14:47:19;16.07;;;9.60;;
19747;SDS011;10032;51.386;12.516;2023-01-29T14:52:20;10.63;;;7.10;;
19747;SDS011;10032;51.386;12.516;2023-01-29T14:54:50;10.97;;;6.60;;
19747;SDS011;10032;51.386;12.516;2023-01-29T14:57:18;11.27;;;7.03;;
19747;SDS011;10032;51.386;12.516;2023-01-29T14:59:57;10.07;;;6.57;;
19747;SDS011;10032;51.386;12.516;2023-01-29T15:02:30;13.10;;;7.57;;
19747;SDS011;10032;51.386;12.516;2023-01-29T15:05:03;13.87;;;7.67;;
19747;SDS011;10032;51.386;12.516;2023-01-29T15:07:40;20.80;;;11.50;;
19747;SDS011;10032;51.386;12.516;2023-01-29T15:10:22;17.97;;;9.07;;
19747;SDS011;10032;51.386;12.516;2023-01-29T15:18:47;11.70;;;6.97;;
19747;SDS011;10032;51.386;12.516;2023-01-29T15:21:18;13.77;;;7.90;;
19747;SDS011;10032;51.386;12.516;2023-01-29T15:23:44;10.80;;;6.47;;
19747;SDS011;10032;51.386;12.516;2023-01-29T15:26:19;15.73;;;8.30;;
19747;SDS011;10032;51.386;12.516;2023-01-29T15:28:54;23.33;;;11.40;;
19747;SDS011;10032;51.386;12.516;2023-01-29T15:31:21;15.87;;;8.90;;
19747;SDS011;10032;51.386;12.516;2023-01-29T15:33:47;10.93;;;6.97;;
19747;SDS011;10032;51.386;12.516;2023-01-29T15:36:18;13.17;;;7.97;;
19747;SDS011;10032;51.386;12.516;2023-01-29T15:38:46;13.30;;;7.80;;
19747;SDS011;10032;51.386;12.516;2023-01-29T15:41:19;14.20;;;8.60;;
19747;SDS011;10032;51.386;12.516;2023-01-29T15:43:46;13.63;;;7.80;;
19747;SDS011;10032;51.386;12.516;2023-01-29T15:46:21;13.70;;;7.20;;
19747;SDS011;10032;51.386;12.516;2023-01-29T15:48:50;15.10;;;8.20;;
19747;SDS011;10032;51.386;12.516;2023-01-29T15:51:21;11.40;;;7.00;;
19747;SDS011;10032;51.386;12.516;2023-01-29T15:53:50;13.17;;;8.03;;
19747;SDS011;10032;51.386;12.516;2023-01-29T15:56:19;18.97;;;9.70;;
19747;SDS011;10032;51.386;12.516;2023-01-29T15:58:48;10.70;;;6.93;;
19747;SDS011;10032;51.386;12.516;2023-01-29T16:01:16;13.90;;;7.10;;
19747;SDS011;10032;51.386;12.516;2023-01-29T16:03:42;12.63;;;7.93;;
19747;SDS011;10032;51.386;12.516;2023-01-29T16:06:08;12.73;;;7.57;;
19747;SDS011;10032;51.386;12.516;2023-01-29T16:08:35;12.60;;;7.90;;
19747;SDS011;10032;51.386;12.516;2023-01-29T16:11:04;13.77;;;7.53;;
19747;SDS011;10032;51.386;12.516;2023-01-29T16:13:35;19.10;;;8.73;;
19747;SDS011;10032;51.386;12.516;2023-01-29T16:16:25;30.97;;;14.97;;
19747;SDS011;10032;51.386;12.516;2023-01-29T16:18:50;14.97;;;9.57;;
19747;SDS011;10032;51.386;12.516;2023-01-29T16:24:04;20.03;;;9.47;;
19747;SDS011;10032;51.386;12.516;2023-01-29T16:26:37;23.03;;;11.30;;
19747;SDS011;10032;51.386;12.516;2023-01-29T16:29:08;20.87;;;9.87;;
19747;SDS011;10032;51.386;12.516;2023-01-29T16:31:35;18.00;;;9.50;;
19747;SDS011;10032;51.386;12.516;2023-01-29T16:34:06;26.33;;;12.80;;
19747;SDS011;10032;51.386;12.516;2023-01-29T16:36:53;14.13;;;8.90;;
19747;SDS011;10032;51.386;12.516;2023-01-29T16:39:23;13.63;;;7.43;;
19747;SDS011;10032;51.386;12.516;2023-01-29T16:47:23;13.67;;;7.67;;
19747;SDS011;10032;51.386;12.516;2023-01-29T16:52:56;14.20;;;7.37;;
19747;SDS011;10032;51.386;12.516;2023-01-29T16:55:31;9.53;;;6.83;;
19747;SDS011;10032;51.386;12.516;2023-01-29T16:58:02;11.90;;;7.00;;
19747;SDS011;10032;51.386;12.516;2023-01-29T17:00:33;10.97;;;6.63;;
19747;SDS011;10032;51.386;12.516;2023-01-29T17:02:59;13.40;;;8.53;;
19747;SDS011;10032;51.386;12.516;2023-01-29T17:05:30;9.87;;;7.47;;
19747;SDS011;10032;51.386;12.516;2023-01-29T17:07:57;10.33;;;6.30;;
19747;SDS011;10032;51.386;12.516;2023-01-29T17:10:27;11.33;;;6.47;;
19747;SDS011;10032;51.386;12.516;2023-01-29T17:12:56;12.60;;;7.03;;
19747;SDS011;10032;51.386;12.516;2023-01-29T17:18:22;14.50;;;8.13;;
19747;SDS011;10032;51.386;12.516;2023-01-29T17:20:49;10.00;;;7.13;;
19747;SDS011;10032;51.386;12.516;2023-01-29T17:23:16;11.90;;;6.50;;
19747;SDS011;10032;51.386;12.516;2023-01-29T17:25:42;13.40;;;7.60;;
19747;SDS011;10032;51.386;12.516;2023-01-29T17:28:10;16.77;;;9.30;;
19747;SDS011;10032;51.386;12.516;2023-01-29T17:30:37;11.67;;;7.63;;
19747;SDS011;10032;51.386;12.516;2023-01-29T17:33:10;14.40;;;7.67;;